Time;durP1;ratioP1;P1;durP2;ratioP2;P2;SDS_P1;SDS_P2;PMS_P1;PMS_P2;Temp;Humidity;BMP_temperature;BMP_pressure;BME280_temperature;BME280_humidity;BME280_pressure;Samples;Min_cycle;Max_cycle;Signal;HPM_P1;HPM_P2
2021/05/04 00:01:41;;;;;;;5.50;5.00;;;6.20;99.90;;;;;;4930732;28;20202;-96
2021/05/04 00:04:07;;;;;;;4.83;4.43;;;6.20;99.90;;;;;;4942096;28;20238;-95
2021/05/04 00:06:33;;;;;;;5.30;4.80;;;6.20;99.90;;;;;;4941989;28;20191;-95
2021/05/04 00:09:01;;;;;;;4.83;4.40;;;6.20;99.90;;;;;;4942782;28;20470;-95
2021/05/04 00:11:29;;;;;;;5.63;5.13;;;6.20;99.90;;;;;;4941329;28;20518;-94
2021/05/04 00:13:55;;;;;;;4.97;4.57;;;6.30;99.90;;;;;;4928300;28;20457;-95
2021/05/04 00:16:21;;;;;;;5.30;4.80;;;6.30;99.90;;;;;;4929268;28;20242;-95
2021/05/04 00:18:46;;;;;;;4.87;4.40;;;6.40;99.90;;;;;;4940787;28;20202;-94
2021/05/04 00:21:12;;;;;;;5.40;4.90;;;6.40;99.90;;;;;;4942927;28;20281;-95
2021/05/04 00:23:38;;;;;;;5.27;4.77;;;6.40;99.90;;;;;;4943778;28;20552;-95
2021/05/04 00:26:04;;;;;;;5.80;4.60;;;6.40;99.90;;;;;;4924673;28;20675;-94
2021/05/04 00:28:35;;;;;;;5.57;4.97;;;6.30;99.90;;;;;;4926765;28;20286;-94
2021/05/04 00:31:00;;;;;;;6.27;5.60;;;6.20;99.90;;;;;;4946460;28;20238;-95
2021/05/04 00:33:29;;;;;;;5.90;5.40;;;6.10;99.90;;;;;;4940811;28;20518;-95
2021/05/04 00:36:06;;;;;;;5.40;4.90;;;6.00;99.90;;;;;;4943417;28;20204;-96
2021/05/04 00:38:32;;;;;;;5.47;4.97;;;6.00;99.90;;;;;;4944987;28;20439;-94
2021/05/04 00:40:58;;;;;;;7.07;4.47;;;6.00;99.90;;;;;;4942712;28;20796;-95
2021/05/04 00:43:35;;;;;;;6.77;4.60;;;6.00;99.90;;;;;;4929626;28;20207;-94
2021/05/04 00:46:01;;;;;;;4.83;4.43;;;6.00;99.90;;;;;;4945075;28;20274;-95
2021/05/04 00:48:28;;;;;;;5.80;5.00;;;5.90;99.90;;;;;;4950195;28;20544;-96
2021/05/04 00:51:06;;;;;;;4.40;4.00;;;6.00;99.90;;;;;;4946927;28;20501;-96
2021/05/04 00:53:33;;;;;;;4.93;4.40;;;6.20;99.90;;;;;;4925280;29;20436;-95
2021/05/04 00:56:00;;;;;;;3.70;3.40;;;6.20;99.90;;;;;;4944084;28;20482;-95
2021/05/04 00:58:32;;;;;;;5.70;3.93;;;6.30;99.90;;;;;;4927216;29;20468;-95
2021/05/04 01:01:12;;;;;;;5.77;4.27;;;6.40;99.90;;;;;;4948888;28;20954;-96
2021/05/04 01:03:39;;;;;;;4.53;4.13;;;6.60;99.90;;;;;;4933015;28;20472;-96
2021/05/04 01:06:05;;;;;;;4.63;4.33;;;6.70;99.90;;;;;;4929503;28;20460;-95
2021/05/04 01:08:37;;;;;;;4.63;4.30;;;6.60;99.90;;;;;;4938094;28;20971;-94
2021/05/04 01:11:03;;;;;;;5.00;4.60;;;6.50;99.90;;;;;;4944513;28;20226;-93
2021/05/04 01:13:28;;;;;;;5.00;4.40;;;6.40;99.90;;;;;;4929484;28;20449;-93
2021/05/04 01:16:03;;;;;;;5.40;4.90;;;6.20;99.90;;;;;;4925274;28;20211;-93
2021/05/04 01:18:31;;;;;;;5.17;4.77;;;6.30;99.90;;;;;;4962226;28;20214;-94
2021/05/04 01:20:57;;;;;;;5.20;4.80;;;6.20;99.90;;;;;;4949469;28;20454;-94
2021/05/04 01:23:23;;;;;;;5.40;4.90;;;6.10;99.90;;;;;;4947395;28;20769;-94
2021/05/04 01:25:48;;;;;;;5.10;4.30;;;6.10;99.90;;;;;;4930043;28;20281;-94
2021/05/04 01:28:16;;;;;;;4.90;4.50;;;6.10;99.90;;;;;;4932069;28;20209;-95
2021/05/04 01:30:42;;;;;;;5.13;4.63;;;6.00;99.90;;;;;;4928851;28;20353;-93
2021/05/04 01:33:08;;;;;;;4.97;4.60;;;6.00;99.90;;;;;;4937532;28;20602;-94
2021/05/04 01:35:34;;;;;;;4.97;4.57;;;6.00;99.90;;;;;;4927485;28;20202;-94
2021/05/04 01:38:01;;;;;;;5.50;4.47;;;5.90;99.90;;;;;;4942721;28;20192;-94
2021/05/04 01:40:27;;;;;;;4.93;4.53;;;5.90;99.90;;;;;;4928699;28;20194;-94
2021/05/04 01:42:53;;;;;;;4.67;4.27;;;5.90;99.90;;;;;;4942441;28;20848;-95
2021/05/04 01:45:34;;;;;;;5.70;5.10;;;5.80;99.90;;;;;;4949279;28;20577;-96
2021/05/04 01:48:00;;;;;;;4.97;4.50;;;5.70;99.90;;;;;;4926433;28;20618;-96
2021/05/04 01:50:26;;;;;;;5.40;4.90;;;5.70;99.90;;;;;;4946115;28;20484;-94
2021/05/04 01:52:52;;;;;;;5.10;4.70;;;5.80;99.90;;;;;;4945705;28;20198;-94
2021/05/04 01:55:21;;;;;;;5.23;4.73;;;5.80;99.90;;;;;;4944680;28;20445;-95
2021/05/04 01:57:47;;;;;;;5.00;4.60;;;5.80;99.90;;;;;;4942961;28;20204;-96
2021/05/04 02:00:13;;;;;;;4.87;4.43;;;5.80;99.90;;;;;;4949666;28;20968;-95
2021/05/04 02:02:39;;;;;;;5.13;4.73;;;5.70;99.90;;;;;;4932231;28;20194;-96
2021/05/04 02:05:05;;;;;;;4.93;4.53;;;5.70;99.90;;;;;;4935494;28;20468;-96
2021/05/04 02:07:31;;;;;;;5.20;4.70;;;5.70;99.90;;;;;;4933521;28;20183;-96
2021/05/04 02:09:57;;;;;;;5.43;4.93;;;5.70;99.90;;;;;;4956009;28;20486;-96
2021/05/04 02:12:23;;;;;;;5.10;4.70;;;5.70;99.90;;;;;;4965917;28;20255;-96
2021/05/04 02:14:57;;;;;;;5.00;4.50;;;5.70;99.90;;;;;;4945657;28;20211;-94
2021/05/04 02:17:25;;;;;;;5.60;4.67;;;5.70;99.90;;;;;;4962950;28;20468;-96
2021/05/04 02:19:51;;;;;;;5.17;4.67;;;5.80;99.90;;;;;;4942490;28;20463;-96
2021/05/04 02:22:16;;;;;;;5.00;4.00;;;5.90;99.90;;;;;;4938934;28;20451;-96
2021/05/04 02:24:42;;;;;;;4.93;4.43;;;6.00;99.90;;;;;;4959061;28;20188;-96
2021/05/04 02:27:08;;;;;;;4.77;4.30;;;6.10;99.90;;;;;;4948725;28;20643;-96
2021/05/04 02:29:34;;;;;;;4.90;4.50;;;6.10;99.90;;;;;;4939142;28;20580;-96
2021/05/04 02:32:00;;;;;;;7.43;4.80;;;6.10;99.90;;;;;;4937694;28;20197;-96
2021/05/04 02:34:26;;;;;;;4.27;3.90;;;6.10;99.90;;;;;;4960463;28;20265;-96
2021/05/04 02:36:51;;;;;;;4.90;4.40;;;6.00;99.90;;;;;;4964295;28;20211;-96
2021/05/04 02:39:17;;;;;;;5.50;5.10;;;5.90;99.90;;;;;;4961977;28;20192;-96
2021/05/04 02:41:44;;;;;;;6.60;5.60;;;5.90;99.90;;;;;;4964102;28;20228;-96
2021/05/04 02:44:09;;;;;;;6.00;4.53;;;5.90;99.90;;;;;;4957132;28;20521;-96
2021/05/04 02:46:38;;;;;;;4.77;4.37;;;6.00;99.90;;;;;;4963359;28;20469;-96
2021/05/04 02:49:04;;;;;;;5.30;4.90;;;6.10;99.90;;;;;;4952440;29;20196;-96
2021/05/04 02:51:40;;;;;;;5.63;5.13;;;6.20;99.90;;;;;;4960045;28;20483;-96
2021/05/04 02:54:06;;;;;;;4.60;4.20;;;6.20;99.90;;;;;;4948658;29;20449;-96
2021/05/04 02:56:32;;;;;;;4.67;4.37;;;6.00;99.90;;;;;;4944637;29;20260;-96
2021/05/04 02:59:00;;;;;;;4.70;4.30;;;5.90;99.90;;;;;;4946360;29;20548;-96
2021/05/04 03:01:35;;;;;;;4.20;3.90;;;5.70;99.90;;;;;;4948529;29;20469;-96
2021/05/04 03:04:00;;;;;;;5.10;4.70;;;5.50;99.90;;;;;;4952096;28;20472;-96
2021/05/04 03:06:26;;;;;;;5.53;5.03;;;5.40;99.90;;;;;;4942168;28;20192;-96
2021/05/04 03:08:55;;;;;;;5.20;4.77;;;5.30;99.90;;;;;;4943483;28;20207;-95
2021/05/04 03:11:20;;;;;;;4.97;4.57;;;5.20;99.90;;;;;;4929033;29;21743;-96
2021/05/04 03:13:57;;;;;;;6.87;4.70;;;5.20;99.90;;;;;;4943557;28;20469;-94
2021/05/04 03:16:41;;;;;;;4.77;3.90;;;5.20;99.90;;;;;;4925659;28;20482;-95
2021/05/04 03:19:08;;;;;;;4.90;4.20;;;5.20;99.90;;;;;;4946142;28;20454;-96
2021/05/04 03:21:34;;;;;;;3.90;3.60;;;5.20;99.90;;;;;;4933045;28;21017;-95
2021/05/04 03:24:00;;;;;;;4.37;4.07;;;5.20;99.90;;;;;;4932444;29;20203;-96
2021/05/04 03:26:26;;;;;;;4.50;4.20;;;5.20;99.90;;;;;;4953350;28;20210;-96
2021/05/04 03:28:51;;;;;;;4.47;4.07;;;5.30;99.90;;;;;;4932657;28;20280;-96
2021/05/04 03:31:17;;;;;;;4.23;3.83;;;5.50;99.90;;;;;;4934487;29;20483;-96
2021/05/04 03:33:43;;;;;;;4.37;3.97;;;5.80;99.90;;;;;;4934025;29;20187;-96
2021/05/04 03:36:09;;;;;;;4.33;3.93;;;6.10;99.90;;;;;;4932324;29;20219;-96
2021/05/04 03:38:34;;;;;;;4.03;3.73;;;6.30;99.90;;;;;;4944620;28;20199;-96
2021/05/04 03:46:16;;;;;;;4.50;4.10;;;6.60;99.90;;;;;;5314783;23;20514;-96
2021/05/04 03:48:42;;;;;;;5.23;4.73;;;6.60;99.90;;;;;;4944390;28;20473;-96
2021/05/04 03:51:08;;;;;;;5.23;4.83;;;6.60;99.90;;;;;;4948823;28;20481;-96
2021/05/04 03:53:36;;;;;;;4.60;4.20;;;6.60;99.90;;;;;;4948307;28;20630;-96
2021/05/04 03:56:01;;;;;;;4.80;4.27;;;6.60;99.90;;;;;;4944934;28;20197;-95
2021/05/04 03:58:27;;;;;;;4.77;4.27;;;6.60;99.90;;;;;;4949403;28;21043;-96
2021/05/04 04:01:02;;;;;;;5.43;4.70;;;6.60;99.90;;;;;;4946404;28;21070;-96
2021/05/04 04:03:28;;;;;;;4.77;4.37;;;6.50;99.90;;;;;;4937577;28;20196;-95
2021/05/04 04:05:53;;;;;;;4.40;4.00;;;6.50;99.90;;;;;;4931514;28;20826;-95
2021/05/04 04:08:20;;;;;;;4.57;4.20;;;6.60;99.90;;;;;;4942362;28;20217;-93
2021/05/04 04:10:47;;;;;;;4.53;4.20;;;6.60;99.90;;;;;;4947154;28;20243;-94
2021/05/04 04:13:13;;;;;;;4.00;3.70;;;6.60;99.90;;;;;;4962347;28;20450;-92
2021/05/04 04:15:40;;;;;;;5.73;5.23;;;6.60;99.90;;;;;;4947082;28;20823;-91
2021/05/04 04:18:06;;;;;;;4.90;4.27;;;6.70;99.90;;;;;;4946310;28;20460;-90
2021/05/04 04:20:31;;;;;;;4.63;3.80;;;6.90;99.90;;;;;;4948655;28;20452;-92
2021/05/04 04:22:57;;;;;;;3.77;3.37;;;7.10;99.90;;;;;;4942993;28;20972;-91
2021/05/04 04:25:23;;;;;;;3.90;3.60;;;7.20;99.90;;;;;;4943824;28;20205;-91
2021/05/04 04:28:07;;;;;;;3.43;3.13;;;7.30;99.90;;;;;;4962663;28;20334;-92
2021/05/04 04:30:33;;;;;;;3.27;2.73;;;7.40;99.90;;;;;;4947768;28;20608;-91
2021/05/04 04:32:59;;;;;;;3.70;2.90;;;7.50;99.90;;;;;;4946673;28;20677;-93
2021/05/04 04:35:24;;;;;;;2.90;2.70;;;7.70;99.90;;;;;;4950080;28;20201;-93
2021/05/04 04:37:50;;;;;;;3.07;2.87;;;7.80;99.90;;;;;;4952741;28;20559;-92
2021/05/04 04:40:22;;;;;;;2.70;2.50;;;7.90;99.90;;;;;;4951177;28;20196;-93
2021/05/04 04:42:47;;;;;;;3.27;3.03;;;7.90;99.90;;;;;;4933832;28;20190;-92
2021/05/04 04:45:13;;;;;;;3.07;2.87;;;8.00;99.90;;;;;;4951349;28;20489;-92
2021/05/04 04:47:39;;;;;;;2.80;2.60;;;8.00;99.90;;;;;;4948117;28;20221;-92
2021/05/04 04:50:05;;;;;;;3.87;3.13;;;8.10;99.90;;;;;;4951213;28;20508;-93
2021/05/04 04:52:31;;;;;;;3.00;2.80;;;8.10;99.90;;;;;;4950837;28;20201;-92
2021/05/04 04:54:57;;;;;;;3.70;3.40;;;8.20;99.90;;;;;;4949228;28;20446;-95
2021/05/04 04:57:23;;;;;;;3.40;3.10;;;8.10;99.90;;;;;;4950509;28;20965;-92
2021/05/04 04:59:49;;;;;;;2.83;2.63;;;8.10;99.90;;;;;;4952380;28;20184;-94
2021/05/04 05:02:19;;;;;;;2.93;2.73;;;8.30;99.90;;;;;;4952593;28;20188;-96
2021/05/04 05:04:45;;;;;;;4.20;3.40;;;8.30;99.90;;;;;;4951781;28;20448;-95
2021/05/04 05:07:11;;;;;;;3.30;3.00;;;8.30;99.90;;;;;;4952073;28;20634;-93
2021/05/04 05:09:36;;;;;;;3.20;2.90;;;8.40;99.90;;;;;;4950615;28;20483;-93
2021/05/04 05:12:06;;;;;;;3.23;2.97;;;8.40;99.90;;;;;;4951600;28;20190;-94
2021/05/04 05:14:34;;;;;;;3.90;3.60;;;8.40;99.90;;;;;;4945917;28;20555;-92
2021/05/04 05:17:00;;;;;;;3.33;3.00;;;8.50;99.90;;;;;;4947617;28;20505;-94
2021/05/04 05:19:26;;;;;;;3.40;2.90;;;8.40;99.90;;;;;;4954132;28;20476;-96
2021/05/04 05:21:54;;;;;;;3.33;3.13;;;8.50;99.90;;;;;;4953776;28;20449;-93
2021/05/04 05:24:20;;;;;;;3.77;2.73;;;8.70;99.70;;;;;;4949272;28;20540;-93
2021/05/04 05:26:46;;;;;;;3.07;2.87;;;8.80;99.30;;;;;;4955665;28;20193;-95
2021/05/04 05:29:14;;;;;;;2.60;2.40;;;8.90;99.20;;;;;;4961677;28;20465;-96
2021/05/04 05:31:39;;;;;;;3.60;3.30;;;8.90;98.90;;;;;;4959265;28;20206;-96
2021/05/04 05:34:46;;;;;;;3.77;3.00;;;9.00;98.80;;;;;;4958025;28;20442;-95
2021/05/04 05:37:09;;;;;;;4.73;3.33;;;9.10;98.70;;;;;;4967645;28;20297;-95
2021/05/04 05:39:37;;;;;;;10.00;4.33;;;9.10;98.50;;;;;;4947235;28;20618;-95
2021/05/04 05:42:04;;;;;;;6.03;4.60;;;9.20;98.70;;;;;;4950323;28;20224;-96
2021/05/04 05:44:30;;;;;;;4.50;4.20;;;9.20;98.70;;;;;;4950100;28;20784;-94
2021/05/04 05:46:59;;;;;;;4.67;4.03;;;9.20;98.90;;;;;;4949780;28;20925;-95
2021/05/04 05:49:24;;;;;;;4.13;3.67;;;9.20;99.30;;;;;;4952252;28;20452;-94
2021/05/04 05:51:50;;;;;;;3.93;3.63;;;9.20;99.60;;;;;;4951623;28;20326;-94
2021/05/04 05:54:18;;;;;;;4.17;3.60;;;9.20;99.30;;;;;;4951406;28;20544;-94
2021/05/04 05:56:49;;;;;;;3.80;3.40;;;9.20;99.30;;;;;;4965832;28;20534;-94
2021/05/04 05:59:15;;;;;;;5.60;3.23;;;9.30;99.40;;;;;;4949377;28;20430;-94
2021/05/04 06:01:42;;;;;;;5.07;4.60;;;9.40;99.20;;;;;;4951175;28;20469;-94
2021/05/04 06:04:07;;;;;;;5.00;4.10;;;9.50;99.10;;;;;;4950287;28;20441;-94
2021/05/04 06:06:34;;;;;;;7.80;5.50;;;9.60;99.10;;;;;;4955246;28;20443;-93
2021/05/04 06:09:03;;;;;;;11.90;5.37;;;9.70;99.20;;;;;;4954393;28;20585;-93
2021/05/04 06:11:28;;;;;;;8.03;3.87;;;9.80;99.10;;;;;;4953839;28;20519;-95
2021/05/04 06:13:54;;;;;;;6.73;4.60;;;9.90;98.90;;;;;;4952963;28;20489;-94
2021/05/04 06:16:20;;;;;;;13.07;4.27;;;10.00;98.20;;;;;;4949713;28;20320;-95
2021/05/04 06:18:45;;;;;;;14.07;6.70;;;10.10;98.00;;;;;;4945292;28;20193;-96
2021/05/04 06:21:11;;;;;;;26.60;7.37;;;10.30;97.90;;;;;;4949702;28;20224;-94
2021/05/04 06:23:39;;;;;;;7.60;3.80;;;10.40;97.60;;;;;;4947786;28;20189;-94
2021/05/04 06:26:05;;;;;;;4.30;3.90;;;10.50;97.10;;;;;;4946835;28;20282;-95
2021/05/04 06:28:30;;;;;;;4.17;3.20;;;10.60;97.30;;;;;;4946836;28;21107;-94
2021/05/04 06:30:56;;;;;;;6.03;4.13;;;10.70;96.80;;;;;;4949091;28;20512;-94
2021/05/04 06:33:25;;;;;;;129.57;17.30;;;10.90;96.40;;;;;;4949587;28;20716;-94
2021/05/04 06:35:50;;;;;;;18.17;6.03;;;11.10;96.50;;;;;;4949288;28;20214;-96
2021/05/04 06:38:18;;;;;;;14.90;4.63;;;11.20;96.30;;;;;;4969077;28;20445;-96
2021/05/04 06:48:25;;;;;;;3.20;2.60;;;11.90;94.00;;;;;;4940917;28;20491;-90
2021/05/04 06:50:51;;;;;;;4.50;2.67;;;11.90;93.30;;;;;;4927347;29;20534;-93
2021/05/04 06:53:17;;;;;;;4.40;2.80;;;12.10;92.90;;;;;;4929665;28;20449;-92
2021/05/04 06:55:42;;;;;;;3.40;2.70;;;12.10;92.50;;;;;;4925105;29;20823;-90
2021/05/04 06:58:08;;;;;;;2.77;2.57;;;12.30;92.50;;;;;;4921846;29;20191;-91
2021/05/04 07:00:34;;;;;;;2.67;2.47;;;12.30;92.10;;;;;;4926735;29;20227;-90
2021/05/04 07:03:04;;;;;;;3.33;2.43;;;12.40;91.80;;;;;;4941324;29;20195;-91
2021/05/04 07:05:30;;;;;;;3.60;3.13;;;12.40;92.00;;;;;;4924811;29;20983;-92
2021/05/04 07:07:56;;;;;;;3.27;2.40;;;12.50;92.00;;;;;;4928362;29;20455;-91
2021/05/04 07:10:27;;;;;;;2.70;2.50;;;12.60;91.20;;;;;;4928040;28;20478;-92
2021/05/04 07:12:53;;;;;;;2.57;2.37;;;12.60;91.30;;;;;;4956690;28;20452;-91
2021/05/04 07:15:19;;;;;;;2.97;2.77;;;12.60;91.10;;;;;;4922194;29;21098;-90
2021/05/04 07:17:45;;;;;;;2.53;2.33;;;12.70;91.00;;;;;;4924309;28;20438;-93
2021/05/04 07:20:18;;;;;;;4.10;2.40;;;12.70;91.00;;;;;;4927112;29;20179;-90
2021/05/04 07:28:59;;;;;;;3.03;2.67;;;13.00;90.20;;;;;;4942952;28;20458;-91
2021/05/04 07:31:34;;;;;;;2.70;2.50;;;13.20;89.30;;;;;;4924121;29;21032;-94
2021/05/04 07:33:59;;;;;;;3.23;2.93;;;13.30;87.10;;;;;;4926122;29;20445;-94
2021/05/04 07:36:26;;;;;;;5.77;3.17;;;13.30;88.30;;;;;;4921277;29;20957;-94
2021/05/04 07:38:52;;;;;;;2.87;2.60;;;13.40;85.60;;;;;;4925497;29;20203;-95
2021/05/04 07:41:18;;;;;;;8.90;3.17;;;13.40;86.00;;;;;;4922612;29;20827;-93
2021/05/04 07:43:44;;;;;;;7.63;3.50;;;13.50;86.60;;;;;;4942968;28;20194;-91
2021/05/04 07:46:10;;;;;;;3.10;2.80;;;13.60;86.30;;;;;;4924900;29;20438;-95
2021/05/04 07:48:35;;;;;;;3.47;2.30;;;13.70;84.80;;;;;;4958036;28;20257;-91
2021/05/04 07:51:04;;;;;;;2.90;2.70;;;13.80;84.80;;;;;;4927513;29;20562;-92
2021/05/04 07:53:33;;;;;;;4.60;2.57;;;13.80;83.80;;;;;;4924993;29;20209;-91
2021/05/04 07:55:59;;;;;;;2.93;2.47;;;13.80;84.00;;;;;;4923799;29;20824;-92
2021/05/04 07:58:33;;;;;;;2.20;2.00;;;13.80;83.20;;;;;;4928828;29;20474;-92
2021/05/04 08:00:58;;;;;;;3.40;2.63;;;13.80;84.50;;;;;;4929124;28;20451;-92
2021/05/04 08:03:28;;;;;;;2.53;2.33;;;14.00;84.40;;;;;;4924093;29;21410;-94
2021/05/04 08:05:54;;;;;;;2.40;2.30;;;14.10;83.30;;;;;;4957860;28;20318;-91
2021/05/04 08:08:24;;;;;;;2.70;2.13;;;14.20;82.20;;;;;;4926217;29;20443;-92
2021/05/04 08:10:53;;;;;;;4.70;2.20;;;14.40;81.00;;;;;;4939494;28;20363;-93
2021/05/04 08:13:27;;;;;;;4.20;1.90;;;14.60;81.00;;;;;;4924665;28;20514;-91
2021/05/04 08:15:53;;;;;;;2.43;2.23;;;14.50;80.20;;;;;;4921407;28;20446;-92
2021/05/04 08:18:19;;;;;;;2.80;2.23;;;14.70;79.10;;;;;;4926871;28;20434;-92
2021/05/04 08:20:53;;;;;;;3.73;2.20;;;15.10;80.80;;;;;;4925584;29;20501;-91
2021/05/04 08:23:22;;;;;;;6.47;2.67;;;15.30;78.10;;;;;;4924698;29;20450;-89
2021/05/04 08:25:59;;;;;;;7.80;2.40;;;15.30;73.60;;;;;;4921725;29;20820;-90
2021/05/04 08:28:25;;;;;;;3.20;2.30;;;15.40;71.80;;;;;;4927290;29;20522;-91
2021/05/04 08:30:59;;;;;;;5.13;2.07;;;15.40;72.90;;;;;;4928903;29;20588;-92
2021/05/04 08:33:27;;;;;;;7.30;2.17;;;15.50;70.80;;;;;;4917018;29;20198;-90
2021/05/04 08:35:55;;;;;;;2.10;2.00;;;15.40;67.80;;;;;;4921359;29;20451;-91
2021/05/04 08:38:21;;;;;;;2.33;1.90;;;15.50;68.60;;;;;;4925347;28;20466;-91
2021/05/04 08:40:52;;;;;;;2.87;2.17;;;15.60;70.20;;;;;;4938727;29;20450;-91
2021/05/04 08:43:32;;;;;;;2.50;2.23;;;15.80;70.70;;;;;;4924386;29;20685;-89
2021/05/04 08:46:08;;;;;;;6.03;2.40;;;15.70;68.80;;;;;;4926201;29;20446;-94
2021/05/04 08:48:51;;;;;;;13.10;2.60;;;15.60;69.10;;;;;;4923434;29;21048;-91
2021/05/04 08:51:23;;;;;;;5.37;2.00;;;15.40;67.80;;;;;;4924168;28;20483;-90
2021/05/04 08:53:49;;;;;;;7.13;2.30;;;15.60;68.40;;;;;;4923888;28;20501;-89
2021/05/04 08:56:25;;;;;;;10.20;2.27;;;15.70;65.80;;;;;;4925954;29;21081;-90
2021/05/04 08:58:51;;;;;;;6.47;2.20;;;15.50;65.60;;;;;;4926585;29;20179;-88
2021/05/04 09:01:17;;;;;;;9.90;3.03;;;15.40;67.20;;;;;;4922712;29;20451;-90
2021/05/04 09:04:00;;;;;;;;;;;;;;;;;;;;;
2021/05/04 09:06:42;;;;;;;2.00;1.90;;;15.40;65.90;;;;;;4943749;28;20195;-89
2021/05/04 09:09:31;;;;;;;;;;;;;;;;;;;;;
2021/05/04 09:12:06;;;;;;;18.13;3.07;;;15.40;66.80;;;;;;4928044;28;20438;-90
2021/05/04 09:14:51;;;;;;;4.03;2.60;;;15.60;65.10;;;;;;4925523;29;20454;-89
2021/05/04 09:17:31;;;;;;;3.17;2.10;;;15.80;65.90;;;;;;4930859;28;20784;-91
2021/05/04 09:20:33;;;;;;;7.77;2.60;;;16.10;66.10;;;;;;4940987;29;20465;-89
2021/05/04 09:23:05;;;;;;;6.43;2.60;;;16.10;62.30;;;;;;4942522;29;20458;-91
2021/05/04 09:25:33;;;;;;;10.30;3.00;;;16.60;64.40;;;;;;4928485;29;20454;-91
2021/05/04 09:28:05;;;;;;;2.53;2.27;;;16.80;66.60;;;;;;4944289;28;20560;-91
2021/05/04 09:30:34;;;;;;;7.90;2.73;;;16.80;64.90;;;;;;4942735;28;20569;-94
2021/05/04 09:33:08;;;;;;;11.60;2.90;;;16.60;64.90;;;;;;4944988;29;20454;-90
2021/05/04 09:35:46;;;;;;;6.37;2.70;;;16.60;63.20;;;;;;4945730;28;20441;-88
2021/05/04 09:38:18;;;;;;;7.13;2.80;;;16.30;60.10;;;;;;4947684;29;20434;-89
2021/05/04 09:40:48;;;;;;;7.57;2.60;;;16.30;62.40;;;;;;4944124;29;20508;-90
2021/05/04 09:43:19;;;;;;;8.23;3.07;;;16.50;61.60;;;;;;4914305;28;20967;-93
2021/05/04 09:46:06;;;;;;;3.23;2.27;;;16.60;61.70;;;;;;4928128;29;20447;-90
2021/05/04 09:48:34;;;;;;;23.83;5.13;;;16.60;62.90;;;;;;4928136;29;20451;-94
2021/05/04 09:51:18;;;;;;;7.43;2.87;;;16.80;62.40;;;;;;4931796;29;20485;-92
2021/05/04 09:56:16;;;;;;;5.13;2.40;;;16.70;60.80;;;;;;4948657;28;20457;-90
2021/05/04 09:58:46;;;;;;;3.03;2.30;;;16.70;60.00;;;;;;4925547;29;20445;-93
2021/05/04 10:01:21;;;;;;;10.43;3.30;;;16.90;59.90;;;;;;4929590;29;20807;-93
2021/05/04 10:03:48;;;;;;;2.40;2.30;;;17.00;59.20;;;;;;4925555;29;20469;-88
2021/05/04 10:06:16;;;;;;;4.30;2.40;;;17.10;59.20;;;;;;4936102;29;20491;-91
2021/05/04 10:08:44;;;;;;;5.17;2.20;;;16.90;59.50;;;;;;4939443;28;20459;-88
2021/05/04 10:11:12;;;;;;;2.63;2.40;;;17.00;60.70;;;;;;4929592;29;20594;-91
2021/05/04 10:13:44;;;;;;;2.97;2.50;;;16.70;59.10;;;;;;4927657;29;20458;-88
2021/05/04 10:16:15;;;;;;;3.90;1.90;;;17.00;61.30;;;;;;4928446;29;20492;-91
2021/05/04 10:18:42;;;;;;;4.80;2.20;;;17.10;59.60;;;;;;4924615;29;20526;-88
2021/05/04 10:21:08;;;;;;;3.17;2.37;;;16.80;59.90;;;;;;4947882;29;20466;-94
2021/05/04 10:23:41;;;;;;;2.10;1.83;;;17.20;60.90;;;;;;4944436;29;20455;-89
2021/05/04 10:29:37;;;;;;;8.43;2.70;;;17.20;60.00;;;;;;4930011;29;20474;-89
2021/05/04 10:32:28;;;;;;;3.70;2.23;;;17.50;57.90;;;;;;4924833;29;20857;-92
2021/05/04 10:34:53;;;;;;;7.03;2.53;;;17.60;58.50;;;;;;4924941;29;20534;-91
2021/05/04 10:37:22;;;;;;;7.23;2.77;;;17.90;57.60;;;;;;4926877;29;20905;-90
2021/05/04 10:39:48;;;;;;;2.67;2.47;;;18.00;56.60;;;;;;4927243;28;20197;-88
2021/05/04 10:42:35;;;;;;;3.63;2.40;;;18.00;56.30;;;;;;4929211;28;20454;-89
2021/05/04 10:45:01;;;;;;;6.23;3.00;;;17.80;54.60;;;;;;4957252;28;20246;-89
2021/05/04 10:47:39;;;;;;;2.73;2.13;;;17.90;55.70;;;;;;4923745;29;20553;-88
2021/05/04 10:50:08;;;;;;;5.37;2.63;;;17.90;54.70;;;;;;4922151;29;20215;-89
2021/05/04 10:52:50;;;;;;;11.10;2.70;;;17.70;55.40;;;;;;4922715;29;20442;-88
2021/05/04 10:55:20;;;;;;;12.43;3.13;;;17.30;54.90;;;;;;4939625;28;20565;-93
2021/05/04 10:58:50;;;;;;;4.83;2.40;;;17.20;54.60;;;;;;4941991;28;20443;-94
2021/05/04 11:02:17;;;;;;;3.97;2.53;;;17.00;53.80;;;;;;4849840;29;20468;-90
2021/05/04 11:05:00;;;;;;;8.90;2.90;;;16.90;54.70;;;;;;4855294;29;21004;-93
2021/05/04 11:08:01;;;;;;;3.17;2.63;;;16.90;57.10;;;;;;4926866;29;20461;-92
2021/05/04 11:10:30;;;;;;;2.30;2.10;;;16.80;57.50;;;;;;4926442;29;20481;-90
2021/05/04 11:13:07;;;;;;;7.87;2.30;;;16.90;57.40;;;;;;4926616;28;20449;-89
2021/05/04 11:15:34;;;;;;;14.37;2.90;;;17.30;55.50;;;;;;4926411;29;20462;-86
2021/05/04 11:17:59;;;;;;;2.93;2.10;;;17.40;54.20;;;;;;4926331;29;20454;-89
2021/05/04 11:20:38;;;;;;;2.83;2.33;;;17.30;53.90;;;;;;4943129;28;20534;-89
2021/05/04 11:23:06;;;;;;;2.70;2.07;;;16.90;55.30;;;;;;4924420;29;20218;-88
2021/05/04 11:25:44;;;;;;;7.50;2.67;;;16.90;55.80;;;;;;4923897;29;20537;-87
2021/05/04 11:28:10;;;;;;;3.47;2.20;;;17.00;55.50;;;;;;4926598;29;21891;-89
2021/05/04 11:30:42;;;;;;;2.83;2.23;;;17.00;55.20;;;;;;4926207;29;20494;-89
2021/05/04 11:33:30;;;;;;;2.90;2.70;;;17.00;55.80;;;;;;4943297;29;20573;-89
2021/05/04 11:36:06;;;;;;;2.37;2.03;;;17.00;54.90;;;;;;4927000;29;20485;-91
2021/05/04 11:38:47;;;;;;;2.50;2.33;;;16.90;55.40;;;;;;4943535;29;20477;-90
2021/05/04 11:41:12;;;;;;;4.07;2.67;;;16.80;56.90;;;;;;4927113;29;20434;-89
2021/05/04 11:43:38;;;;;;;3.60;2.70;;;16.70;54.70;;;;;;4922811;28;20518;-87
2021/05/04 11:46:13;;;;;;;2.87;2.57;;;16.70;55.30;;;;;;4924460;28;20180;-89
2021/05/04 11:48:41;;;;;;;3.43;3.13;;;16.30;55.30;;;;;;4926872;29;20190;-94
2021/05/04 11:53:43;;;;;;;2.77;2.33;;;16.90;57.40;;;;;;4938883;28;20209;-90
2021/05/04 11:56:11;;;;;;;3.80;2.27;;;17.00;57.10;;;;;;4920329;29;20442;-88
2021/05/04 11:58:36;;;;;;;4.30;2.57;;;16.40;55.60;;;;;;4920577;29;20462;-89
2021/05/04 12:01:07;;;;;;;8.73;3.13;;;16.30;57.00;;;;;;4925081;29;20434;-89
2021/05/04 12:03:50;;;;;;;2.13;2.03;;;16.60;57.80;;;;;;4939362;28;20343;-90
2021/05/04 12:06:18;;;;;;;3.27;2.70;;;16.60;56.80;;;;;;4920859;29;20467;-89
2021/05/04 12:08:47;;;;;;;3.13;2.30;;;16.60;57.10;;;;;;4917608;29;20446;-85
2021/05/04 12:11:15;;;;;;;2.60;2.40;;;16.20;57.80;;;;;;4938492;28;20489;-88
2021/05/04 12:13:41;;;;;;;5.27;2.40;;;16.60;58.40;;;;;;4940582;29;20718;-87
2021/05/04 12:16:09;;;;;;;2.73;2.50;;;16.60;59.00;;;;;;4921820;28;20557;-87
2021/05/04 12:21:22;;;;;;;2.80;2.60;;;16.40;59.80;;;;;;4935320;28;20194;-88
2021/05/04 12:24:14;;;;;;;4.57;2.77;;;16.50;59.70;;;;;;4921602;29;20882;-90
2021/05/04 12:26:44;;;;;;;3.40;2.47;;;16.40;59.00;;;;;;4922996;29;20603;-89
2021/05/04 12:29:10;;;;;;;3.77;2.43;;;16.40;57.60;;;;;;4904465;28;20454;-87
2021/05/04 12:31:38;;;;;;;4.47;2.33;;;16.10;58.10;;;;;;4920346;29;20470;-89
2021/05/04 12:34:21;;;;;;;2.77;2.10;;;16.10;58.00;;;;;;4937993;28;20195;-87
2021/05/04 12:36:51;;;;;;;2.70;1.87;;;16.30;58.00;;;;;;4939047;28;20450;-88
2021/05/04 12:39:22;;;;;;;2.43;2.20;;;16.40;56.60;;;;;;4908723;29;20495;-90
2021/05/04 12:41:50;;;;;;;2.63;2.37;;;16.50;56.60;;;;;;4935191;28;20458;-89
2021/05/04 12:46:52;;;;;;;2.30;2.00;;;16.70;56.90;;;;;;4928649;28;20976;-89
2021/05/04 12:49:19;;;;;;;3.50;2.40;;;16.50;56.60;;;;;;4912566;29;20459;-92
2021/05/04 12:51:50;;;;;;;3.57;1.90;;;16.30;56.80;;;;;;4917060;28;20482;-84
2021/05/04 12:54:34;;;;;;;4.23;1.93;;;16.30;57.80;;;;;;4916222;28;20469;-87
2021/05/04 12:57:01;;;;;;;2.40;1.90;;;16.40;57.50;;;;;;4920774;29;20466;-86
2021/05/04 12:59:31;;;;;;;3.03;2.30;;;16.50;57.80;;;;;;4921929;29;20962;-87
2021/05/04 13:02:05;;;;;;;2.53;2.00;;;16.60;56.70;;;;;;4916630;28;21212;-87
2021/05/04 13:04:45;;;;;;;3.33;2.40;;;16.40;56.30;;;;;;4922050;29;20470;-87
2021/05/04 13:07:28;;;;;;;5.83;2.60;;;16.30;56.60;;;;;;4919718;28;20446;-88
2021/05/04 13:10:20;;;;;;;3.57;2.30;;;16.60;59.80;;;;;;4937685;28;20545;-87
2021/05/04 13:16:20;;;;;;;2.70;2.20;;;16.30;58.10;;;;;;4927362;28;20904;-86
2021/05/04 13:29:37;;;;;;;3.93;2.37;;;16.60;67.50;;;;;;4934843;28;21079;-87
2021/05/04 13:32:14;;;;;;;5.57;3.23;;;17.10;61.60;;;;;;4922318;29;20552;-83
2021/05/04 13:37:09;;;;;;;2.90;2.60;;;16.70;59.00;;;;;;4943364;28;20546;-83
2021/05/04 13:47:42;;;;;;;2.73;1.83;;;16.60;60.30;;;;;;4933344;28;20493;-82
2021/05/04 13:50:11;;;;;;;9.20;2.40;;;16.40;59.30;;;;;;4930616;28;20493;-83
2021/05/04 13:52:37;;;;;;;6.00;2.90;;;16.30;60.00;;;;;;4918942;28;20477;-82
2021/05/04 13:55:07;;;;;;;3.07;1.80;;;16.70;58.90;;;;;;4944936;28;21231;-83
2021/05/04 13:57:34;;;;;;;2.77;2.50;;;16.90;59.30;;;;;;4935712;28;20463;-83
2021/05/04 14:00:02;;;;;;;3.07;2.17;;;16.70;59.10;;;;;;4923379;29;20777;-83
2021/05/04 14:02:38;;;;;;;2.67;2.47;;;16.80;58.70;;;;;;4934978;28;20446;-82
2021/05/04 14:08:18;;;;;;;2.60;2.40;;;16.80;58.20;;;;;;4938327;28;20478;-82